sensor_id;sensor_type;location;lat;lon;timestamp;P1;durP1;ratioP1;P2;durP2;ratioP2
7881;SDS011;3986;41.884;23.466;2022-09-28T00:01:52;11.03;;;9.93;;
7881;SDS011;3986;41.884;23.466;2022-09-28T00:04:19;11.40;;;9.70;;
7881;SDS011;3986;41.884;23.466;2022-09-28T00:06:46;11.60;;;9.10;;
7881;SDS011;3986;41.884;23.466;2022-09-28T00:09:15;16.83;;;10.60;;
7881;SDS011;3986;41.884;23.466;2022-09-28T00:11:42;15.23;;;9.93;;
7881;SDS011;3986;41.884;23.466;2022-09-28T00:14:10;11.13;;;9.30;;
7881;SDS011;3986;41.884;23.466;2022-09-28T00:16:38;13.60;;;9.30;;
7881;SDS011;3986;41.884;23.466;2022-09-28T00:19:07;15.10;;;11.67;;
7881;SDS011;3986;41.884;23.466;2022-09-28T00:21:35;12.97;;;11.67;;
7881;SDS011;3986;41.884;23.466;2022-09-28T00:24:04;11.67;;;10.00;;
7881;SDS011;3986;41.884;23.466;2022-09-28T00:26:41;12.90;;;11.40;;
7881;SDS011;3986;41.884;23.466;2022-09-28T00:29:14;14.07;;;11.93;;
7881;SDS011;3986;41.884;23.466;2022-09-28T00:31:44;15.03;;;12.73;;
7881;SDS011;3986;41.884;23.466;2022-09-28T00:34:11;14.53;;;13.00;;
7881;SDS011;3986;41.884;23.466;2022-09-28T00:36:41;20.07;;;14.93;;
7881;SDS011;3986;41.884;23.466;2022-09-28T00:39:09;16.23;;;13.23;;
7881;SDS011;3986;41.884;23.466;2022-09-28T00:41:37;26.03;;;21.30;;
7881;SDS011;3986;41.884;23.466;2022-09-28T00:47:17;25.27;;;20.67;;
7881;SDS011;3986;41.884;23.466;2022-09-28T00:49:56;27.90;;;20.47;;
7881;SDS011;3986;41.884;23.466;2022-09-28T00:52:27;21.67;;;19.00;;
7881;SDS011;3986;41.884;23.466;2022-09-28T00:54:58;24.33;;;16.90;;
7881;SDS011;3986;41.884;23.466;2022-09-28T00:57:27;19.50;;;15.73;;
7881;SDS011;3986;41.884;23.466;2022-09-28T00:59:56;20.67;;;14.40;;
7881;SDS011;3986;41.884;23.466;2022-09-28T01:02:26;17.33;;;11.00;;
7881;SDS011;3986;41.884;23.466;2022-09-28T01:04:53;18.67;;;11.00;;
7881;SDS011;3986;41.884;23.466;2022-09-28T01:07:21;15.57;;;9.63;;
7881;SDS011;3986;41.884;23.466;2022-09-28T01:09:48;14.27;;;10.70;;
7881;SDS011;3986;41.884;23.466;2022-09-28T01:12:18;30.07;;;10.80;;
7881;SDS011;3986;41.884;23.466;2022-09-28T01:14:45;18.30;;;11.83;;
7881;SDS011;3986;41.884;23.466;2022-09-28T01:17:15;18.50;;;13.07;;
7881;SDS011;3986;41.884;23.466;2022-09-28T01:22:55;16.57;;;12.43;;
7881;SDS011;3986;41.884;23.466;2022-09-28T01:25:44;16.97;;;11.90;;
7881;SDS011;3986;41.884;23.466;2022-09-28T01:28:19;27.93;;;14.37;;
7881;SDS011;3986;41.884;23.466;2022-09-28T01:30:49;17.23;;;11.57;;
7881;SDS011;3986;41.884;23.466;2022-09-28T01:33:28;18.10;;;10.53;;
7881;SDS011;3986;41.884;23.466;2022-09-28T01:36:01;30.80;;;10.53;;
7881;SDS011;3986;41.884;23.466;2022-09-28T01:38:33;29.30;;;11.23;;
7881;SDS011;3986;41.884;23.466;2022-09-28T01:41:04;12.27;;;10.97;;
7881;SDS011;3986;41.884;23.466;2022-09-28T01:43:34;16.57;;;12.80;;
7881;SDS011;3986;41.884;23.466;2022-09-28T01:46:06;16.10;;;10.50;;
7881;SDS011;3986;41.884;23.466;2022-09-28T01:48:38;21.73;;;10.30;;
7881;SDS011;3986;41.884;23.466;2022-09-28T01:51:10;18.03;;;12.50;;
7881;SDS011;3986;41.884;23.466;2022-09-28T01:53:42;25.80;;;12.43;;
7881;SDS011;3986;41.884;23.466;2022-09-28T01:56:14;18.30;;;11.67;;
7881;SDS011;3986;41.884;23.466;2022-09-28T01:58:49;37.30;;;12.60;;
7881;SDS011;3986;41.884;23.466;2022-09-28T02:01:21;50.70;;;14.33;;
7881;SDS011;3986;41.884;23.466;2022-09-28T02:03:53;18.57;;;11.60;;
7881;SDS011;3986;41.884;23.466;2022-09-28T02:06:28;36.83;;;13.77;;
7881;SDS011;3986;41.884;23.466;2022-09-28T02:08:59;22.13;;;13.53;;
7881;SDS011;3986;41.884;23.466;2022-09-28T02:11:30;69.30;;;16.23;;
7881;SDS011;3986;41.884;23.466;2022-09-28T02:14:03;25.00;;;15.37;;
7881;SDS011;3986;41.884;23.466;2022-09-28T02:16:35;38.00;;;16.70;;
7881;SDS011;3986;41.884;23.466;2022-09-28T02:19:04;15.03;;;13.00;;
7881;SDS011;3986;41.884;23.466;2022-09-28T02:21:35;19.70;;;13.43;;
7881;SDS011;3986;41.884;23.466;2022-09-28T02:24:09;13.03;;;11.80;;
7881;SDS011;3986;41.884;23.466;2022-09-28T02:26:40;13.23;;;11.93;;
7881;SDS011;3986;41.884;23.466;2022-09-28T02:29:11;63.17;;;16.70;;
7881;SDS011;3986;41.884;23.466;2022-09-28T02:31:38;14.40;;;13.07;;
7881;SDS011;3986;41.884;23.466;2022-09-28T02:34:05;13.73;;;12.30;;
7881;SDS011;3986;41.884;23.466;2022-09-28T02:36:32;14.40;;;13.00;;
7881;SDS011;3986;41.884;23.466;2022-09-28T02:38:59;16.60;;;13.03;;
7881;SDS011;3986;41.884;23.466;2022-09-28T02:41:31;24.60;;;14.77;;
7881;SDS011;3986;41.884;23.466;2022-09-28T02:44:17;23.67;;;15.77;;
7881;SDS011;3986;41.884;23.466;2022-09-28T02:46:55;32.83;;;17.90;;
7881;SDS011;3986;41.884;23.466;2022-09-28T02:49:29;27.33;;;16.70;;
7881;SDS011;3986;41.884;23.466;2022-09-28T02:52:07;20.47;;;15.63;;
7881;SDS011;3986;41.884;23.466;2022-09-28T02:54:51;22.37;;;13.93;;
7881;SDS011;3986;41.884;23.466;2022-09-28T02:57:35;12.87;;;11.57;;
7881;SDS011;3986;41.884;23.466;2022-09-28T03:00:15;29.00;;;12.80;;
7881;SDS011;3986;41.884;23.466;2022-09-28T03:02:46;13.60;;;10.77;;
7881;SDS011;3986;41.884;23.466;2022-09-28T03:05:21;19.43;;;10.10;;
7881;SDS011;3986;41.884;23.466;2022-09-28T03:07:56;12.43;;;8.33;;
7881;SDS011;3986;41.884;23.466;2022-09-28T03:10:27;12.00;;;8.43;;
7881;SDS011;3986;41.884;23.466;2022-09-28T03:12:58;16.93;;;8.93;;
7881;SDS011;3986;41.884;23.466;2022-09-28T03:15:28;21.57;;;9.07;;
7881;SDS011;3986;41.884;23.466;2022-09-28T03:17:57;13.27;;;8.10;;
7881;SDS011;3986;41.884;23.466;2022-09-28T03:20:24;11.20;;;8.23;;
7881;SDS011;3986;41.884;23.466;2022-09-28T03:22:51;22.63;;;10.13;;
7881;SDS011;3986;41.884;23.466;2022-09-28T03:25:18;16.43;;;10.63;;
7881;SDS011;3986;41.884;23.466;2022-09-28T03:27:45;17.37;;;9.93;;
7881;SDS011;3986;41.884;23.466;2022-09-28T03:30:12;34.93;;;11.40;;
7881;SDS011;3986;41.884;23.466;2022-09-28T03:32:41;11.33;;;9.70;;
7881;SDS011;3986;41.884;23.466;2022-09-28T03:35:08;23.47;;;11.10;;
7881;SDS011;3986;41.884;23.466;2022-09-28T03:37:35;17.23;;;10.80;;
7881;SDS011;3986;41.884;23.466;2022-09-28T03:40:02;10.03;;;8.87;;
7881;SDS011;3986;41.884;23.466;2022-09-28T03:42:30;20.97;;;10.57;;
7881;SDS011;3986;41.884;23.466;2022-09-28T03:44:57;15.07;;;9.60;;
7881;SDS011;3986;41.884;23.466;2022-09-28T03:47:24;16.23;;;9.53;;
7881;SDS011;3986;41.884;23.466;2022-09-28T03:49:52;17.97;;;9.80;;
7881;SDS011;3986;41.884;23.466;2022-09-28T03:52:19;27.87;;;11.50;;
7881;SDS011;3986;41.884;23.466;2022-09-28T03:54:46;22.30;;;13.80;;
7881;SDS011;3986;41.884;23.466;2022-09-28T03:57:12;20.87;;;13.67;;
7881;SDS011;3986;41.884;23.466;2022-09-28T03:59:39;14.70;;;11.97;;
7881;SDS011;3986;41.884;23.466;2022-09-28T04:02:06;22.27;;;13.23;;
7881;SDS011;3986;41.884;23.466;2022-09-28T04:04:33;16.53;;;11.33;;
7881;SDS011;3986;41.884;23.466;2022-09-28T04:07:01;20.83;;;12.03;;
7881;SDS011;3986;41.884;23.466;2022-09-28T04:09:28;20.57;;;11.13;;
7881;SDS011;3986;41.884;23.466;2022-09-28T04:11:55;21.13;;;12.50;;
7881;SDS011;3986;41.884;23.466;2022-09-28T04:14:22;26.10;;;12.67;;
7881;SDS011;3986;41.884;23.466;2022-09-28T04:16:49;18.37;;;11.17;;
7881;SDS011;3986;41.884;23.466;2022-09-28T04:19:19;22.03;;;13.33;;
7881;SDS011;3986;41.884;23.466;2022-09-28T04:21:46;20.53;;;10.90;;
7881;SDS011;3986;41.884;23.466;2022-09-28T04:24:16;25.83;;;10.73;;
7881;SDS011;3986;41.884;23.466;2022-09-28T04:26:44;15.43;;;10.23;;
7881;SDS011;3986;41.884;23.466;2022-09-28T04:29:11;21.43;;;11.10;;
7881;SDS011;3986;41.884;23.466;2022-09-28T04:31:40;14.70;;;10.07;;
7881;SDS011;3986;41.884;23.466;2022-09-28T04:34:09;16.23;;;11.00;;
7881;SDS011;3986;41.884;23.466;2022-09-28T04:36:37;19.37;;;12.23;;
7881;SDS011;3986;41.884;23.466;2022-09-28T04:39:03;21.50;;;12.40;;
7881;SDS011;3986;41.884;23.466;2022-09-28T04:41:31;20.47;;;10.97;;
7881;SDS011;3986;41.884;23.466;2022-09-28T04:43:59;26.50;;;11.87;;
7881;SDS011;3986;41.884;23.466;2022-09-28T04:46:25;26.83;;;13.27;;
7881;SDS011;3986;41.884;23.466;2022-09-28T04:48:52;28.03;;;14.10;;
7881;SDS011;3986;41.884;23.466;2022-09-28T04:51:19;62.57;;;42.30;;
7881;SDS011;3986;41.884;23.466;2022-09-28T04:53:46;30.33;;;19.17;;
7881;SDS011;3986;41.884;23.466;2022-09-28T04:56:13;29.40;;;16.17;;
7881;SDS011;3986;41.884;23.466;2022-09-28T04:58:42;21.33;;;14.83;;
7881;SDS011;3986;41.884;23.466;2022-09-28T05:01:11;23.07;;;16.53;;
7881;SDS011;3986;41.884;23.466;2022-09-28T05:03:39;20.90;;;15.70;;
7881;SDS011;3986;41.884;23.466;2022-09-28T05:06:06;23.70;;;14.37;;
7881;SDS011;3986;41.884;23.466;2022-09-28T05:08:34;20.80;;;14.87;;
7881;SDS011;3986;41.884;23.466;2022-09-28T05:11:02;27.33;;;14.90;;
7881;SDS011;3986;41.884;23.466;2022-09-28T05:13:30;20.97;;;13.20;;
7881;SDS011;3986;41.884;23.466;2022-09-28T05:16:01;20.70;;;11.67;;
7881;SDS011;3986;41.884;23.466;2022-09-28T05:18:28;17.87;;;12.33;;
7881;SDS011;3986;41.884;23.466;2022-09-28T05:20:54;25.60;;;14.70;;
7881;SDS011;3986;41.884;23.466;2022-09-28T05:23:21;31.57;;;24.20;;
7881;SDS011;3986;41.884;23.466;2022-09-28T05:25:48;32.30;;;26.27;;
7881;SDS011;3986;41.884;23.466;2022-09-28T05:28:16;24.63;;;22.07;;
7881;SDS011;3986;41.884;23.466;2022-09-28T05:30:49;27.63;;;18.93;;
7881;SDS011;3986;41.884;23.466;2022-09-28T05:33:17;19.27;;;16.80;;
7881;SDS011;3986;41.884;23.466;2022-09-28T05:35:44;14.70;;;12.97;;
7881;SDS011;3986;41.884;23.466;2022-09-28T05:38:11;15.20;;;13.57;;
7881;SDS011;3986;41.884;23.466;2022-09-28T05:40:38;18.47;;;13.77;;
7881;SDS011;3986;41.884;23.466;2022-09-28T05:43:05;26.43;;;18.47;;
7881;SDS011;3986;41.884;23.466;2022-09-28T05:45:31;24.70;;;19.30;;
7881;SDS011;3986;41.884;23.466;2022-09-28T05:47:58;27.40;;;18.70;;
7881;SDS011;3986;41.884;23.466;2022-09-28T05:50:27;28.33;;;18.83;;
7881;SDS011;3986;41.884;23.466;2022-09-28T05:53:00;28.83;;;19.17;;
7881;SDS011;3986;41.884;23.466;2022-09-28T05:55:28;33.33;;;15.37;;
7881;SDS011;3986;41.884;23.466;2022-09-28T05:57:58;51.90;;;34.03;;
7881;SDS011;3986;41.884;23.466;2022-09-28T06:00:26;39.23;;;16.90;;
7881;SDS011;3986;41.884;23.466;2022-09-28T06:02:54;34.03;;;14.30;;
7881;SDS011;3986;41.884;23.466;2022-09-28T06:05:22;31.17;;;14.73;;
7881;SDS011;3986;41.884;23.466;2022-09-28T06:07:51;42.47;;;20.23;;
7881;SDS011;3986;41.884;23.466;2022-09-28T06:10:18;25.27;;;12.10;;
7881;SDS011;3986;41.884;23.466;2022-09-28T06:12:45;23.37;;;11.57;;
7881;SDS011;3986;41.884;23.466;2022-09-28T06:15:13;37.23;;;17.23;;
7881;SDS011;3986;41.884;23.466;2022-09-28T06:17:41;18.13;;;12.37;;
7881;SDS011;3986;41.884;23.466;2022-09-28T06:20:08;24.77;;;12.67;;
7881;SDS011;3986;41.884;23.466;2022-09-28T06:22:36;20.37;;;15.37;;
7881;SDS011;3986;41.884;23.466;2022-09-28T06:25:05;33.07;;;15.03;;
7881;SDS011;3986;41.884;23.466;2022-09-28T06:27:33;18.57;;;14.70;;
7881;SDS011;3986;41.884;23.466;2022-09-28T06:30:00;29.03;;;20.90;;
7881;SDS011;3986;41.884;23.466;2022-09-28T06:32:27;48.30;;;23.20;;
7881;SDS011;3986;41.884;23.466;2022-09-28T06:34:54;33.47;;;23.33;;
7881;SDS011;3986;41.884;23.466;2022-09-28T06:37:21;58.27;;;24.67;;
7881;SDS011;3986;41.884;23.466;2022-09-28T06:39:50;56.27;;;26.77;;
7881;SDS011;3986;41.884;23.466;2022-09-28T06:42:19;45.03;;;25.20;;
7881;SDS011;3986;41.884;23.466;2022-09-28T06:44:46;69.77;;;47.20;;
7881;SDS011;3986;41.884;23.466;2022-09-28T06:47:12;48.30;;;29.37;;
7881;SDS011;3986;41.884;23.466;2022-09-28T06:49:41;66.97;;;47.10;;
7881;SDS011;3986;41.884;23.466;2022-09-28T06:52:10;38.40;;;34.40;;
7881;SDS011;3986;41.884;23.466;2022-09-28T06:54:39;73.97;;;31.83;;
7881;SDS011;3986;41.884;23.466;2022-09-28T06:57:06;74.50;;;50.97;;
7881;SDS011;3986;41.884;23.466;2022-09-28T06:59:34;60.37;;;25.00;;
7881;SDS011;3986;41.884;23.466;2022-09-28T07:02:01;32.90;;;20.97;;
7881;SDS011;3986;41.884;23.466;2022-09-28T07:04:27;71.30;;;26.93;;
7881;SDS011;3986;41.884;23.466;2022-09-28T07:06:55;53.20;;;24.27;;
7881;SDS011;3986;41.884;23.466;2022-09-28T07:09:23;45.00;;;22.87;;
7881;SDS011;3986;41.884;23.466;2022-09-28T07:11:50;57.93;;;26.17;;
7881;SDS011;3986;41.884;23.466;2022-09-28T07:14:17;44.17;;;22.23;;
7881;SDS011;3986;41.884;23.466;2022-09-28T07:16:47;61.17;;;25.60;;
7881;SDS011;3986;41.884;23.466;2022-09-28T07:19:13;41.90;;;26.90;;
7881;SDS011;3986;41.884;23.466;2022-09-28T07:21:41;73.90;;;31.10;;
7881;SDS011;3986;41.884;23.466;2022-09-28T07:24:08;67.13;;;44.10;;
7881;SDS011;3986;41.884;23.466;2022-09-28T07:26:38;64.23;;;28.93;;
7881;SDS011;3986;41.884;23.466;2022-09-28T07:29:05;74.53;;;47.83;;
7881;SDS011;3986;41.884;23.466;2022-09-28T07:31:32;58.63;;;27.40;;
7881;SDS011;3986;41.884;23.466;2022-09-28T07:34:00;54.20;;;29.53;;
7881;SDS011;3986;41.884;23.466;2022-09-28T07:36:27;76.93;;;31.70;;
7881;SDS011;3986;41.884;23.466;2022-09-28T07:38:54;57.20;;;29.33;;
7881;SDS011;3986;41.884;23.466;2022-09-28T07:41:21;52.87;;;27.47;;
7881;SDS011;3986;41.884;23.466;2022-09-28T07:43:56;65.47;;;32.00;;
7881;SDS011;3986;41.884;23.466;2022-09-28T07:46:30;59.97;;;34.00;;
7881;SDS011;3986;41.884;23.466;2022-09-28T07:48:57;56.70;;;29.93;;
7881;SDS011;3986;41.884;23.466;2022-09-28T07:51:25;60.72;;;31.52;;
7881;SDS011;3986;41.884;23.466;2022-09-28T07:53:52;56.30;;;29.07;;
7881;SDS011;3986;41.884;23.466;2022-09-28T07:56:19;66.78;;;36.95;;
7881;SDS011;3986;41.884;23.466;2022-09-28T07:58:46;73.28;;;31.63;;
7881;SDS011;3986;41.884;23.466;2022-09-28T08:01:14;63.72;;;24.42;;
7881;SDS011;3986;41.884;23.466;2022-09-28T08:03:41;40.13;;;27.25;;
7881;SDS011;3986;41.884;23.466;2022-09-28T08:06:12;36.58;;;19.55;;
7881;SDS011;3986;41.884;23.466;2022-09-28T08:08:42;35.58;;;16.92;;
7881;SDS011;3986;41.884;23.466;2022-09-28T08:11:10;61.50;;;16.98;;
7881;SDS011;3986;41.884;23.466;2022-09-28T08:13:37;56.38;;;14.85;;
7881;SDS011;3986;41.884;23.466;2022-09-28T08:16:04;40.60;;;15.05;;
7881;SDS011;3986;41.884;23.466;2022-09-28T08:18:33;37.53;;;15.05;;
7881;SDS011;3986;41.884;23.466;2022-09-28T08:21:01;36.65;;;12.32;;
7881;SDS011;3986;41.884;23.466;2022-09-28T08:23:49;31.60;;;12.02;;
7881;SDS011;3986;41.884;23.466;2022-09-28T08:26:17;37.63;;;12.25;;
7881;SDS011;3986;41.884;23.466;2022-09-28T08:28:44;45.03;;;14.73;;
7881;SDS011;3986;41.884;23.466;2022-09-28T08:31:11;63.08;;;14.60;;
7881;SDS011;3986;41.884;23.466;2022-09-28T08:33:38;94.25;;;17.45;;
7881;SDS011;3986;41.884;23.466;2022-09-28T08:36:07;41.55;;;12.85;;
7881;SDS011;3986;41.884;23.466;2022-09-28T08:38:35;48.05;;;13.40;;
7881;SDS011;3986;41.884;23.466;2022-09-28T08:41:07;37.13;;;12.73;;
7881;SDS011;3986;41.884;23.466;2022-09-28T08:43:47;41.40;;;11.88;;
7881;SDS011;3986;41.884;23.466;2022-09-28T08:46:30;32.38;;;12.60;;
7881;SDS011;3986;41.884;23.466;2022-09-28T08:49:02;55.42;;;17.23;;
7881;SDS011;3986;41.884;23.466;2022-09-28T08:51:34;26.05;;;14.63;;
7881;SDS011;3986;41.884;23.466;2022-09-28T08:54:08;32.50;;;11.60;;
7881;SDS011;3986;41.884;23.466;2022-09-28T08:56:46;59.08;;;14.02;;
7881;SDS011;3986;41.884;23.466;2022-09-28T08:59:15;45.72;;;12.55;;
7881;SDS011;3986;41.884;23.466;2022-09-28T09:01:46;49.20;;;13.20;;
7881;SDS011;3986;41.884;23.466;2022-09-28T09:04:15;63.13;;;12.02;;
7881;SDS011;3986;41.884;23.466;2022-09-28T09:06:56;48.92;;;18.63;;
7881;SDS011;3986;41.884;23.466;2022-09-28T09:09:46;69.45;;;29.30;;
7881;SDS011;3986;41.884;23.466;2022-09-28T09:12:27;44.33;;;11.18;;
7881;SDS011;3986;41.884;23.466;2022-09-28T09:15:09;37.00;;;10.15;;
7881;SDS011;3986;41.884;23.466;2022-09-28T09:17:46;56.83;;;10.07;;
7881;SDS011;3986;41.884;23.466;2022-09-28T09:20:24;40.47;;;10.80;;
7881;SDS011;3986;41.884;23.466;2022-09-28T09:23:00;48.38;;;9.10;;
7881;SDS011;3986;41.884;23.466;2022-09-28T09:25:39;31.33;;;7.55;;
7881;SDS011;3986;41.884;23.466;2022-09-28T09:31:06;58.45;;;9.80;;
7881;SDS011;3986;41.884;23.466;2022-09-28T09:37:03;70.38;;;10.60;;
7881;SDS011;3986;41.884;23.466;2022-09-28T09:39:47;38.53;;;8.52;;
7881;SDS011;3986;41.884;23.466;2022-09-28T09:42:29;62.90;;;8.73;;
7881;SDS011;3986;41.884;23.466;2022-09-28T09:47:57;51.58;;;7.45;;
7881;SDS011;3986;41.884;23.466;2022-09-28T09:50:29;59.03;;;7.00;;
7881;SDS011;3986;41.884;23.466;2022-09-28T09:52:59;94.70;;;10.77;;
7881;SDS011;3986;41.884;23.466;2022-09-28T09:55:30;49.40;;;7.45;;
7881;SDS011;3986;41.884;23.466;2022-09-28T09:58:03;48.15;;;7.03;;
7881;SDS011;3986;41.884;23.466;2022-09-28T10:00:36;47.50;;;7.35;;
7881;SDS011;3986;41.884;23.466;2022-09-28T10:03:05;43.58;;;6.13;;
7881;SDS011;3986;41.884;23.466;2022-09-28T10:05:42;52.75;;;6.68;;
7881;SDS011;3986;41.884;23.466;2022-09-28T10:08:16;31.35;;;5.18;;
7881;SDS011;3986;41.884;23.466;2022-09-28T10:10:48;28.60;;;4.30;;
7881;SDS011;3986;41.884;23.466;2022-09-28T10:13:18;41.45;;;5.15;;
7881;SDS011;3986;41.884;23.466;2022-09-28T10:15:46;53.10;;;8.88;;
7881;SDS011;3986;41.884;23.466;2022-09-28T10:18:15;106.32;;;8.30;;
7881;SDS011;3986;41.884;23.466;2022-09-28T10:20:45;77.35;;;7.03;;
7881;SDS011;3986;41.884;23.466;2022-09-28T10:23:14;269.00;;;19.45;;
7881;SDS011;3986;41.884;23.466;2022-09-28T10:25:46;46.28;;;5.28;;
7881;SDS011;3986;41.884;23.466;2022-09-28T10:28:17;43.58;;;5.45;;
7881;SDS011;3986;41.884;23.466;2022-09-28T10:30:50;70.78;;;6.72;;
7881;SDS011;3986;41.884;23.466;2022-09-28T10:33:26;71.50;;;7.68;;
7881;SDS011;3986;41.884;23.466;2022-09-28T10:35:55;57.33;;;5.90;;
7881;SDS011;3986;41.884;23.466;2022-09-28T10:38:24;48.70;;;5.18;;
7881;SDS011;3986;41.884;23.466;2022-09-28T10:40:51;43.03;;;5.55;;
7881;SDS011;3986;41.884;23.466;2022-09-28T10:43:20;19.13;;;3.22;;
7881;SDS011;3986;41.884;23.466;2022-09-28T10:45:59;77.07;;;7.40;;
7881;SDS011;3986;41.884;23.466;2022-09-28T10:48:30;20.23;;;3.22;;
7881;SDS011;3986;41.884;23.466;2022-09-28T10:51:11;44.03;;;4.88;;
7881;SDS011;3986;41.884;23.466;2022-09-28T10:53:38;56.10;;;5.68;;
7881;SDS011;3986;41.884;23.466;2022-09-28T10:56:06;53.05;;;7.53;;
7881;SDS011;3986;41.884;23.466;2022-09-28T10:58:43;77.18;;;6.90;;
7881;SDS011;3986;41.884;23.466;2022-09-28T11:01:13;42.35;;;5.05;;
7881;SDS011;3986;41.884;23.466;2022-09-28T11:03:48;89.90;;;7.90;;
7881;SDS011;3986;41.884;23.466;2022-09-28T11:06:24;55.33;;;5.97;;
7881;SDS011;3986;41.884;23.466;2022-09-28T11:08:53;23.77;;;4.03;;
7881;SDS011;3986;41.884;23.466;2022-09-28T11:11:22;32.58;;;3.95;;
7881;SDS011;3986;41.884;23.466;2022-09-28T11:13:50;45.08;;;4.53;;
7881;SDS011;3986;41.884;23.466;2022-09-28T11:16:21;153.35;;;9.48;;
7881;SDS011;3986;41.884;23.466;2022-09-28T11:18:50;87.13;;;7.20;;
7881;SDS011;3986;41.884;23.466;2022-09-28T11:21:17;60.85;;;6.22;;
7881;SDS011;3986;41.884;23.466;2022-09-28T11:23:59;51.65;;;6.72;;
7881;SDS011;3986;41.884;23.466;2022-09-28T11:26:37;27.60;;;3.72;;
7881;SDS011;3986;41.884;23.466;2022-09-28T11:29:15;96.80;;;7.28;;
7881;SDS011;3986;41.884;23.466;2022-09-28T11:31:48;44.03;;;4.35;;
7881;SDS011;3986;41.884;23.466;2022-09-28T11:34:19;49.92;;;4.80;;
7881;SDS011;3986;41.884;23.466;2022-09-28T11:36:58;41.20;;;4.43;;
7881;SDS011;3986;41.884;23.466;2022-09-28T11:39:39;69.10;;;7.65;;
7881;SDS011;3986;41.884;23.466;2022-09-28T11:42:16;83.93;;;6.55;;
7881;SDS011;3986;41.884;23.466;2022-09-28T11:44:53;63.88;;;5.63;;
7881;SDS011;3986;41.884;23.466;2022-09-28T11:47:39;44.33;;;5.43;;
7881;SDS011;3986;41.884;23.466;2022-09-28T11:50:20;67.93;;;6.03;;
7881;SDS011;3986;41.884;23.466;2022-09-28T11:52:57;35.70;;;4.32;;
7881;SDS011;3986;41.884;23.466;2022-09-28T11:55:30;37.70;;;4.65;;
7881;SDS011;3986;41.884;23.466;2022-09-28T11:58:02;59.58;;;5.72;;
7881;SDS011;3986;41.884;23.466;2022-09-28T12:00:36;36.97;;;4.45;;
7881;SDS011;3986;41.884;23.466;2022-09-28T12:03:07;61.80;;;5.18;;
7881;SDS011;3986;41.884;23.466;2022-09-28T12:05:42;57.22;;;5.20;;
7881;SDS011;3986;41.884;23.466;2022-09-28T12:08:13;85.22;;;7.63;;
7881;SDS011;3986;41.884;23.466;2022-09-28T12:10:44;55.70;;;6.55;;
7881;SDS011;3986;41.884;23.466;2022-09-28T12:13:17;47.05;;;4.90;;
7881;SDS011;3986;41.884;23.466;2022-09-28T12:15:48;58.10;;;5.22;;
7881;SDS011;3986;41.884;23.466;2022-09-28T12:18:20;51.00;;;4.75;;
7881;SDS011;3986;41.884;23.466;2022-09-28T12:20:51;67.85;;;7.45;;
7881;SDS011;3986;41.884;23.466;2022-09-28T12:23:24;91.22;;;5.97;;
7881;SDS011;3986;41.884;23.466;2022-09-28T12:25:56;62.95;;;5.03;;
7881;SDS011;3986;41.884;23.466;2022-09-28T12:28:28;33.33;;;3.53;;
7881;SDS011;3986;41.884;23.466;2022-09-28T12:31:06;68.82;;;5.35;;
7881;SDS011;3986;41.884;23.466;2022-09-28T12:33:39;61.13;;;5.00;;
7881;SDS011;3986;41.884;23.466;2022-09-28T12:36:12;72.72;;;5.22;;
7881;SDS011;3986;41.884;23.466;2022-09-28T12:39:02;57.00;;;4.47;;
7881;SDS011;3986;41.884;23.466;2022-09-28T12:41:49;60.95;;;5.20;;
7881;SDS011;3986;41.884;23.466;2022-09-28T12:44:27;45.42;;;4.68;;
7881;SDS011;3986;41.884;23.466;2022-09-28T12:47:21;25.65;;;4.15;;
7881;SDS011;3986;41.884;23.466;2022-09-28T12:50:09;48.78;;;5.63;;
7881;SDS011;3986;41.884;23.466;2022-09-28T12:52:48;36.78;;;4.47;;
7881;SDS011;3986;41.884;23.466;2022-09-28T12:55:29;23.85;;;3.65;;
7881;SDS011;3986;41.884;23.466;2022-09-28T12:58:05;25.02;;;4.15;;
7881;SDS011;3986;41.884;23.466;2022-09-28T13:00:46;32.05;;;4.40;;
7881;SDS011;3986;41.884;23.466;2022-09-28T13:03:31;26.10;;;4.35;;
7881;SDS011;3986;41.884;23.466;2022-09-28T13:06:19;34.67;;;4.18;;
7881;SDS011;3986;41.884;23.466;2022-09-28T13:08:59;28.40;;;4.05;;
7881;SDS011;3986;41.884;23.466;2022-09-28T13:11:35;18.13;;;4.15;;
7881;SDS011;3986;41.884;23.466;2022-09-28T13:14:17;45.47;;;4.63;;
7881;SDS011;3986;41.884;23.466;2022-09-28T13:16:54;27.35;;;3.72;;
7881;SDS011;3986;41.884;23.466;2022-09-28T13:19:27;52.30;;;5.53;;
7881;SDS011;3986;41.884;23.466;2022-09-28T13:22:12;32.60;;;4.40;;
7881;SDS011;3986;41.884;23.466;2022-09-28T13:24:47;62.35;;;6.10;;
7881;SDS011;3986;41.884;23.466;2022-09-28T13:27:17;77.68;;;6.88;;
7881;SDS011;3986;41.884;23.466;2022-09-28T13:29:57;30.05;;;4.57;;
7881;SDS011;3986;41.884;23.466;2022-09-28T13:32:25;59.75;;;6.68;;
7881;SDS011;3986;41.884;23.466;2022-09-28T13:34:55;66.38;;;6.15;;
7881;SDS011;3986;41.884;23.466;2022-09-28T13:37:27;48.78;;;5.63;;
7881;SDS011;3986;41.884;23.466;2022-09-28T13:39:55;40.55;;;4.97;;
7881;SDS011;3986;41.884;23.466;2022-09-28T13:48:15;81.53;;;7.20;;
7881;SDS011;3986;41.884;23.466;2022-09-28T13:51:05;92.90;;;8.20;;
7881;SDS011;3986;41.884;23.466;2022-09-28T13:56:43;48.50;;;8.43;;
7881;SDS011;3986;41.884;23.466;2022-09-28T13:59:20;92.70;;;12.27;;
7881;SDS011;3986;41.884;23.466;2022-09-28T14:01:52;36.10;;;8.32;;
7881;SDS011;3986;41.884;23.466;2022-09-28T14:07:22;51.50;;;5.72;;
7881;SDS011;3986;41.884;23.466;2022-09-28T14:12:47;60.20;;;7.15;;
7881;SDS011;3986;41.884;23.466;2022-09-28T14:15:36;59.20;;;7.35;;
7881;SDS011;3986;41.884;23.466;2022-09-28T14:18:09;34.55;;;5.32;;
7881;SDS011;3986;41.884;23.466;2022-09-28T14:20:47;39.70;;;5.88;;
7881;SDS011;3986;41.884;23.466;2022-09-28T14:23:33;24.02;;;4.30;;
7881;SDS011;3986;41.884;23.466;2022-09-28T14:26:27;61.40;;;7.63;;
7881;SDS011;3986;41.884;23.466;2022-09-28T14:29:10;34.88;;;8.00;;
7881;SDS011;3986;41.884;23.466;2022-09-28T14:31:46;33.35;;;5.45;;
7881;SDS011;3986;41.884;23.466;2022-09-28T14:34:23;35.45;;;6.20;;
7881;SDS011;3986;41.884;23.466;2022-09-28T14:36:55;35.85;;;5.47;;
7881;SDS011;3986;41.884;23.466;2022-09-28T14:39:41;32.85;;;5.57;;
7881;SDS011;3986;41.884;23.466;2022-09-28T14:42:28;33.55;;;4.80;;
7881;SDS011;3986;41.884;23.466;2022-09-28T14:45:18;29.95;;;4.80;;
7881;SDS011;3986;41.884;23.466;2022-09-28T14:48:18;41.80;;;5.57;;
7881;SDS011;3986;41.884;23.466;2022-09-28T14:50:47;30.98;;;5.18;;
7881;SDS011;3986;41.884;23.466;2022-09-28T14:53:18;25.55;;;4.85;;
7881;SDS011;3986;41.884;23.466;2022-09-28T14:55:49;30.67;;;4.53;;
7881;SDS011;3986;41.884;23.466;2022-09-28T14:58:23;44.50;;;7.10;;
7881;SDS011;3986;41.884;23.466;2022-09-28T15:00:57;33.33;;;4.85;;
7881;SDS011;3986;41.884;23.466;2022-09-28T15:03:28;30.17;;;5.28;;
7881;SDS011;3986;41.884;23.466;2022-09-28T15:05:57;40.08;;;6.97;;
7881;SDS011;3986;41.884;23.466;2022-09-28T15:08:34;35.65;;;6.43;;
7881;SDS011;3986;41.884;23.466;2022-09-28T15:11:02;52.67;;;7.95;;
7881;SDS011;3986;41.884;23.466;2022-09-28T15:13:30;45.92;;;7.78;;
7881;SDS011;3986;41.884;23.466;2022-09-28T15:15:58;40.55;;;6.88;;
7881;SDS011;3986;41.884;23.466;2022-09-28T15:21:45;22.98;;;5.18;;
7881;SDS011;3986;41.884;23.466;2022-09-28T15:26:59;35.67;;;8.50;;
7881;SDS011;3986;41.884;23.466;2022-09-28T15:29:29;20.85;;;11.07;;
7881;SDS011;3986;41.884;23.466;2022-09-28T15:31:57;22.25;;;6.72;;
7881;SDS011;3986;41.884;23.466;2022-09-28T15:34:25;31.75;;;11.10;;
7881;SDS011;3986;41.884;23.466;2022-09-28T15:37:10;36.75;;;9.55;;
7881;SDS011;3986;41.884;23.466;2022-09-28T15:39:39;36.92;;;10.43;;
7881;SDS011;3986;41.884;23.466;2022-09-28T15:42:07;34.60;;;9.35;;
7881;SDS011;3986;41.884;23.466;2022-09-28T15:44:35;75.45;;;11.07;;